sensor_id;sensor_type;location;lat;lon;timestamp;pressure;altitude;pressure_sealevel;temperature;humidity
72438;BME280;60444;43.534;-5.674;2023-03-03T00:01:28;102420.00;;;8.47;100.00
72438;BME280;60444;43.534;-5.674;2023-03-03T00:03:55;102423.66;;;8.43;100.00
72438;BME280;60444;43.534;-5.674;2023-03-03T00:06:21;102432.63;;;8.45;100.00
72438;BME280;60444;43.534;-5.674;2023-03-03T00:08:46;102408.50;;;8.32;100.00
72438;BME280;60444;43.534;-5.674;2023-03-03T00:11:12;102413.78;;;8.40;100.00
72438;BME280;60444;43.534;-5.674;2023-03-03T00:18:46;102418.22;;;8.44;100.00
72438;BME280;60444;43.534;-5.674;2023-03-03T00:21:40;102434.25;;;8.55;100.00
72438;BME280;60444;43.534;-5.674;2023-03-03T00:26:52;102404.84;;;8.36;100.00
72438;BME280;60444;43.534;-5.674;2023-03-03T00:29:35;102443.28;;;8.51;100.00
72438;BME280;60444;43.534;-5.674;2023-03-03T00:34:40;102431.63;;;8.52;100.00
72438;BME280;60444;43.534;-5.674;2023-03-03T00:37:33;102428.94;;;8.49;100.00
72438;BME280;60444;43.534;-5.674;2023-03-03T00:42:39;102420.91;;;8.46;100.00
72438;BME280;60444;43.534;-5.674;2023-03-03T00:47:52;102415.59;;;8.39;100.00
72438;BME280;60444;43.534;-5.674;2023-03-03T00:53:00;102417.31;;;8.45;100.00
72438;BME280;60444;43.534;-5.674;2023-03-03T00:55:27;102416.50;;;8.40;100.00
72438;BME280;60444;43.534;-5.674;2023-03-03T00:57:53;102413.81;;;8.38;100.00
72438;BME280;60444;43.534;-5.674;2023-03-03T01:00:19;102401.28;;;8.34;100.00
72438;BME280;60444;43.534;-5.674;2023-03-03T01:02:44;102390.59;;;8.27;100.00
72438;BME280;60444;43.534;-5.674;2023-03-03T01:05:12;102414.75;;;8.38;100.00
72438;BME280;60444;43.534;-5.674;2023-03-03T01:07:38;102386.19;;;8.24;100.00
72438;BME280;60444;43.534;-5.674;2023-03-03T01:10:04;102392.44;;;8.26;100.00
72438;BME280;60444;43.534;-5.674;2023-03-03T01:12:29;102413.03;;;8.30;100.00
72438;BME280;60444;43.534;-5.674;2023-03-03T01:14:55;102404.09;;;8.28;100.00
72438;BME280;60444;43.534;-5.674;2023-03-03T01:17:21;102377.25;;;8.16;100.00
72438;BME280;60444;43.534;-5.674;2023-03-03T01:19:46;102383.66;;;8.09;100.00
72438;BME280;60444;43.534;-5.674;2023-03-03T01:22:12;102405.88;;;8.28;100.00
72438;BME280;60444;43.534;-5.674;2023-03-03T01:24:38;102406.84;;;8.22;100.00
72438;BME280;60444;43.534;-5.674;2023-03-03T01:27:03;102371.06;;;8.10;100.00
72438;BME280;60444;43.534;-5.674;2023-03-03T01:29:29;102402.34;;;8.21;100.00
72438;BME280;60444;43.534;-5.674;2023-03-03T01:31:54;102403.28;;;8.19;100.00
72438;BME280;60444;43.534;-5.674;2023-03-03T01:34:20;102407.72;;;8.23;100.00
72438;BME280;60444;43.534;-5.674;2023-03-03T01:36:46;102394.44;;;8.09;100.00
72438;BME280;60444;43.534;-5.674;2023-03-03T01:39:11;102384.53;;;8.11;100.00
72438;BME280;60444;43.534;-5.674;2023-03-03T01:41:37;102401.63;;;8.07;100.00
72438;BME280;60444;43.534;-5.674;2023-03-03T01:44:03;102380.28;;;7.94;100.00
72438;BME280;60444;43.534;-5.674;2023-03-03T01:49:23;102414.25;;;8.04;100.00
72438;BME280;60444;43.534;-5.674;2023-03-03T01:52:00;102405.34;;;7.99;100.00
72438;BME280;60444;43.534;-5.674;2023-03-03T01:54:34;102402.69;;;7.94;100.00
72438;BME280;60444;43.534;-5.674;2023-03-03T01:57:05;102402.63;;;8.00;100.00
72438;BME280;60444;43.534;-5.674;2023-03-03T01:59:35;102384.88;;;7.84;100.00
72438;BME280;60444;43.534;-5.674;2023-03-03T02:02:03;102400.88;;;7.99;100.00
72438;BME280;60444;43.534;-5.674;2023-03-03T02:04:29;102386.59;;;7.91;100.00
72438;BME280;60444;43.534;-5.674;2023-03-03T02:06:59;102400.03;;;7.93;100.00
72438;BME280;60444;43.534;-5.674;2023-03-03T02:09:54;102393.78;;;7.91;100.00
72438;BME280;60444;43.534;-5.674;2023-03-03T02:12:27;102394.59;;;7.97;100.00
72438;BME280;60444;43.534;-5.674;2023-03-03T02:14:55;102387.47;;;7.93;100.00
72438;BME280;60444;43.534;-5.674;2023-03-03T02:17:21;102380.38;;;7.86;100.00
72438;BME280;60444;43.534;-5.674;2023-03-03T02:25:36;102392.84;;;7.93;100.00
72438;BME280;60444;43.534;-5.674;2023-03-03T02:28:07;102367.78;;;7.85;100.00
72438;BME280;60444;43.534;-5.674;2023-03-03T02:30:36;102394.69;;;7.90;100.00
72438;BME280;60444;43.534;-5.674;2023-03-03T02:33:02;102367.78;;;7.85;100.00
72438;BME280;60444;43.534;-5.674;2023-03-03T02:35:33;102361.53;;;7.86;100.00
72438;BME280;60444;43.534;-5.674;2023-03-03T02:41:31;102383.94;;;7.88;100.00
72438;BME280;60444;43.534;-5.674;2023-03-03T02:43:59;102387.50;;;7.92;100.00
72438;BME280;60444;43.534;-5.674;2023-03-03T02:46:23;102380.38;;;7.86;100.00
72438;BME280;60444;43.534;-5.674;2023-03-03T02:48:48;102385.72;;;7.89;100.00
72438;BME280;60444;43.534;-5.674;2023-03-03T02:51:14;102377.63;;;7.89;100.00
72438;BME280;60444;43.534;-5.674;2023-03-03T02:53:39;102350.00;;;7.74;100.00
72438;BME280;60444;43.534;-5.674;2023-03-03T02:56:05;102352.75;;;7.69;100.00
72438;BME280;60444;43.534;-5.674;2023-03-03T02:58:34;102349.13;;;7.73;100.00
72438;BME280;60444;43.534;-5.674;2023-03-03T03:00:59;102352.69;;;7.75;100.00
72438;BME280;60444;43.534;-5.674;2023-03-03T03:03:25;102363.31;;;7.86;100.00
72438;BME280;60444;43.534;-5.674;2023-03-03T03:05:50;102363.38;;;7.81;100.00
72438;BME280;60444;43.534;-5.674;2023-03-03T03:08:16;102352.56;;;7.84;100.00
72438;BME280;60444;43.534;-5.674;2023-03-03T03:10:42;102355.34;;;7.80;100.00
72438;BME280;60444;43.534;-5.674;2023-03-03T03:13:07;102361.44;;;7.91;100.00
72438;BME280;60444;43.534;-5.674;2023-03-03T03:15:34;102324.09;;;7.65;100.00
72438;BME280;60444;43.534;-5.674;2023-03-03T03:18:00;102339.25;;;7.72;100.00
72438;BME280;60444;43.534;-5.674;2023-03-03T03:20:25;102351.53;;;7.93;100.00
72438;BME280;60444;43.534;-5.674;2023-03-03T03:22:51;102355.16;;;7.92;100.00
72438;BME280;60444;43.534;-5.674;2023-03-03T03:25:16;102357.00;;;7.88;100.00
72438;BME280;60444;43.534;-5.674;2023-03-03T03:27:42;102329.38;;;7.71;100.00
72438;BME280;60444;43.534;-5.674;2023-03-03T03:30:08;102336.53;;;7.75;100.00
72438;BME280;60444;43.534;-5.674;2023-03-03T03:32:33;102337.56;;;7.65;100.00
72438;BME280;60444;43.534;-5.674;2023-03-03T03:34:59;102344.53;;;7.81;100.00
72438;BME280;60444;43.534;-5.674;2023-03-03T03:37:24;102320.56;;;7.59;100.00
72438;BME280;60444;43.534;-5.674;2023-03-03T03:39:50;102331.22;;;7.68;100.00
72438;BME280;60444;43.534;-5.674;2023-03-03T03:42:15;102321.50;;;7.58;100.00
72438;BME280;60444;43.534;-5.674;2023-03-03T03:44:41;102305.38;;;7.53;100.00
72438;BME280;60444;43.534;-5.674;2023-03-03T03:47:06;102325.03;;;7.61;100.00
72438;BME280;60444;43.534;-5.674;2023-03-03T03:49:32;102316.97;;;7.61;100.00
72438;BME280;60444;43.534;-5.674;2023-03-03T03:51:57;102338.28;;;7.76;100.00
72438;BME280;60444;43.534;-5.674;2023-03-03T03:54:23;102320.47;;;7.66;100.00
72438;BME280;60444;43.534;-5.674;2023-03-03T03:56:48;102327.72;;;7.63;100.00
72438;BME280;60444;43.534;-5.674;2023-03-03T03:59:14;102312.56;;;7.56;100.00
72438;BME280;60444;43.534;-5.674;2023-03-03T04:01:39;102297.41;;;7.47;100.00
72438;BME280;60444;43.534;-5.674;2023-03-03T04:04:05;102295.53;;;7.52;100.00
72438;BME280;60444;43.534;-5.674;2023-03-03T04:06:30;102298.34;;;7.43;100.00
72438;BME280;60444;43.534;-5.674;2023-03-03T04:08:56;102317.03;;;7.55;100.00
72438;BME280;60444;43.534;-5.674;2023-03-03T04:11:22;102321.44;;;7.61;100.00
72438;BME280;60444;43.534;-5.674;2023-03-03T04:13:47;102307.13;;;7.57;100.00
72438;BME280;60444;43.534;-5.674;2023-03-03T04:16:13;102318.72;;;7.65;100.00
72438;BME280;60444;43.534;-5.674;2023-03-03T04:18:38;102306.47;;;7.40;100.00
72438;BME280;60444;43.534;-5.674;2023-03-03T04:21:04;102309.03;;;7.48;100.00
72438;BME280;60444;43.534;-5.674;2023-03-03T04:23:29;102315.34;;;7.48;100.00
72438;BME280;60444;43.534;-5.674;2023-03-03T04:25:55;102326.00;;;7.57;100.00
72438;BME280;60444;43.534;-5.674;2023-03-03T04:28:20;102295.59;;;7.49;100.00
72438;BME280;60444;43.534;-5.674;2023-03-03T04:30:49;102319.78;;;7.51;100.00
72438;BME280;60444;43.534;-5.674;2023-03-03T04:33:15;102304.63;;;7.45;100.00
72438;BME280;60444;43.534;-5.674;2023-03-03T04:35:40;102321.69;;;7.43;100.00
72438;BME280;60444;43.534;-5.674;2023-03-03T04:38:06;102293.97;;;7.33;100.00
72438;BME280;60444;43.534;-5.674;2023-03-03T04:40:31;102299.38;;;7.34;100.00
72438;BME280;60444;43.534;-5.674;2023-03-03T04:42:56;102320.75;;;7.47;100.00
72438;BME280;60444;43.534;-5.674;2023-03-03T04:45:22;102293.97;;;7.36;100.00
72438;BME280;60444;43.534;-5.674;2023-03-03T04:47:47;102287.84;;;7.23;100.00
72438;BME280;60444;43.534;-5.674;2023-03-03T04:50:13;102319.94;;;7.40;100.00
72438;BME280;60444;43.534;-5.674;2023-03-03T04:52:38;102308.28;;;7.38;100.00
72438;BME280;60444;43.534;-5.674;2023-03-03T04:55:05;102304.72;;;7.36;100.00
72438;BME280;60444;43.534;-5.674;2023-03-03T04:57:31;102318.03;;;7.47;100.00
72438;BME280;60444;43.534;-5.674;2023-03-03T04:59:56;102320.72;;;7.48;100.00
72438;BME280;60444;43.534;-5.674;2023-03-03T05:02:21;102294.78;;;7.41;100.00
72438;BME280;60444;43.534;-5.674;2023-03-03T05:04:47;102311.63;;;7.58;100.00
72438;BME280;60444;43.534;-5.674;2023-03-03T05:07:13;102301.91;;;7.45;100.00
72438;BME280;60444;43.534;-5.674;2023-03-03T05:09:38;102316.09;;;7.59;100.00
72438;BME280;60444;43.534;-5.674;2023-03-03T05:12:04;102318.91;;;7.49;100.00
72438;BME280;60444;43.534;-5.674;2023-03-03T05:14:30;102311.75;;;7.49;100.00
72438;BME280;60444;43.534;-5.674;2023-03-03T05:16:58;102320.72;;;7.48;100.00
72438;BME280;60444;43.534;-5.674;2023-03-03T05:19:24;102321.59;;;7.50;100.00
72438;BME280;60444;43.534;-5.674;2023-03-03T05:21:50;102326.13;;;7.47;100.00
72438;BME280;60444;43.534;-5.674;2023-03-03T05:24:16;102308.22;;;7.43;100.00
72438;BME280;60444;43.534;-5.674;2023-03-03T05:26:41;102291.38;;;7.27;100.00
72438;BME280;60444;43.534;-5.674;2023-03-03T05:29:07;102308.28;;;7.40;100.00
72438;BME280;60444;43.534;-5.674;2023-03-03T05:31:33;102326.16;;;7.45;100.00
72438;BME280;60444;43.534;-5.674;2023-03-03T05:33:58;102312.75;;;7.39;100.00
72438;BME280;60444;43.534;-5.674;2023-03-03T05:36:24;102332.41;;;7.44;100.00
72438;BME280;60444;43.534;-5.674;2023-03-03T05:38:50;102315.47;;;7.38;100.00
72438;BME280;60444;43.534;-5.674;2023-03-03T05:41:15;102330.63;;;7.45;100.00
72438;BME280;60444;43.534;-5.674;2023-03-03T05:43:41;102298.53;;;7.26;100.00
72438;BME280;60444;43.534;-5.674;2023-03-03T05:46:07;102307.44;;;7.31;100.00
72438;BME280;60444;43.534;-5.674;2023-03-03T05:48:32;102318.09;;;7.42;100.00
72438;BME280;60444;43.534;-5.674;2023-03-03T05:50:58;102313.72;;;7.32;100.00
72438;BME280;60444;43.534;-5.674;2023-03-03T05:53:25;102333.41;;;7.37;100.00
72438;BME280;60444;43.534;-5.674;2023-03-03T05:55:50;102315.59;;;7.24;100.00
72438;BME280;60444;43.534;-5.674;2023-03-03T05:58:16;102306.66;;;7.25;100.00
72438;BME280;60444;43.534;-5.674;2023-03-03T06:00:42;102330.75;;;7.35;100.00
72438;BME280;60444;43.534;-5.674;2023-03-03T06:03:07;102313.91;;;7.18;100.00
72438;BME280;60444;43.534;-5.674;2023-03-03T06:05:33;102332.72;;;7.20;100.00
72438;BME280;60444;43.534;-5.674;2023-03-03T06:07:58;102328.22;;;7.19;100.00
72438;BME280;60444;43.534;-5.674;2023-03-03T06:10:24;102337.94;;;7.33;100.00
72438;BME280;60444;43.534;-5.674;2023-03-03T06:12:50;102347.78;;;7.36;100.00
72438;BME280;60444;43.534;-5.674;2023-03-03T06:15:16;102345.97;;;7.38;100.00
72438;BME280;60444;43.534;-5.674;2023-03-03T06:17:42;102356.78;;;7.33;100.00
72438;BME280;60444;43.534;-5.674;2023-03-03T06:20:08;102351.44;;;7.30;100.00
72438;BME280;60444;43.534;-5.674;2023-03-03T06:22:33;102336.19;;;7.29;100.00
72438;BME280;60444;43.534;-5.674;2023-03-03T06:24:59;102350.53;;;7.30;100.00
72438;BME280;60444;43.534;-5.674;2023-03-03T06:27:25;102360.34;;;7.35;100.00
72438;BME280;60444;43.534;-5.674;2023-03-03T06:29:50;102334.47;;;7.22;100.00
72438;BME280;60444;43.534;-5.674;2023-03-03T06:32:16;102362.97;;;7.42;100.00
72438;BME280;60444;43.534;-5.674;2023-03-03T06:34:41;102353.28;;;7.27;100.00
72438;BME280;60444;43.534;-5.674;2023-03-03T06:37:07;102358.56;;;7.33;100.00
72438;BME280;60444;43.534;-5.674;2023-03-03T06:39:32;102373.78;;;7.40;100.00
72438;BME280;60444;43.534;-5.674;2023-03-03T06:41:58;102367.41;;;7.46;100.00
72438;BME280;60444;43.534;-5.674;2023-03-03T06:44:23;102370.28;;;7.30;100.00
72438;BME280;60444;43.534;-5.674;2023-03-03T06:46:49;102378.16;;;7.47;100.00
72438;BME280;60444;43.534;-5.674;2023-03-03T06:49:14;102359.53;;;7.27;100.00
72438;BME280;60444;43.534;-5.674;2023-03-03T06:51:40;102373.81;;;7.34;100.00
72438;BME280;60444;43.534;-5.674;2023-03-03T06:54:19;102368.44;;;7.34;100.00
72438;BME280;60444;43.534;-5.674;2023-03-03T06:56:46;102365.78;;;7.31;100.00
72438;BME280;60444;43.534;-5.674;2023-03-03T06:59:17;102380.09;;;7.34;100.00
72438;BME280;60444;43.534;-5.674;2023-03-03T07:01:44;102371.19;;;7.28;100.00
72438;BME280;60444;43.534;-5.674;2023-03-03T07:04:24;102392.59;;;7.40;100.00
72438;BME280;60444;43.534;-5.674;2023-03-03T07:06:50;102390.00;;;7.31;100.00
72438;BME280;60444;43.534;-5.674;2023-03-03T07:09:28;102387.25;;;7.35;100.00
72438;BME280;60444;43.534;-5.674;2023-03-03T07:12:00;102380.19;;;7.27;100.00
72438;BME280;60444;43.534;-5.674;2023-03-03T07:14:26;102368.56;;;7.23;100.00
72438;BME280;60444;43.534;-5.674;2023-03-03T07:16:58;102397.16;;;7.32;100.00
72438;BME280;60444;43.534;-5.674;2023-03-03T07:19:34;102397.19;;;7.27;100.00
72438;BME280;60444;43.534;-5.674;2023-03-03T07:22:12;102393.63;;;7.28;100.00
72438;BME280;60444;43.534;-5.674;2023-03-03T07:24:39;102407.00;;;7.33;100.00
72438;BME280;60444;43.534;-5.674;2023-03-03T07:29:37;102424.03;;;7.38;100.00
72438;BME280;60444;43.534;-5.674;2023-03-03T07:32:57;102398.94;;;7.34;100.00
72438;BME280;60444;43.534;-5.674;2023-03-03T07:34:58;102399.81;;;7.38;100.00
72438;BME280;60444;43.534;-5.674;2023-03-03T07:37:37;102412.28;;;7.42;100.00
72438;BME280;60444;43.534;-5.674;2023-03-03T07:40:44;102415.84;;;7.47;100.00
72438;BME280;60444;43.534;-5.674;2023-03-03T07:43:29;102409.72;;;7.34;100.00
72438;BME280;60444;43.534;-5.674;2023-03-03T07:48:36;102418.66;;;7.35;100.00
72438;BME280;60444;43.534;-5.674;2023-03-03T07:51:20;102440.06;;;7.49;100.00
72438;BME280;60444;43.534;-5.674;2023-03-03T07:54:44;102427.50;;;7.49;100.00
72438;BME280;60444;43.534;-5.674;2023-03-03T08:00:02;102425.66;;;7.51;100.00
72438;BME280;60444;43.534;-5.674;2023-03-03T08:02:55;102430.06;;;7.61;100.00
72438;BME280;60444;43.534;-5.674;2023-03-03T08:05:42;102438.94;;;7.69;100.00
72438;BME280;60444;43.534;-5.674;2023-03-03T08:16:20;102447.00;;;7.69;100.00
72438;BME280;60444;43.534;-5.674;2023-03-03T08:18:49;102417.59;;;7.50;100.00
72438;BME280;60444;43.534;-5.674;2023-03-03T08:23:42;102460.47;;;7.72;100.00
72438;BME280;60444;43.534;-5.674;2023-03-03T08:26:09;102458.63;;;7.76;100.00
72438;BME280;60444;43.534;-5.674;2023-03-03T08:28:37;102451.41;;;7.76;100.00
72438;BME280;60444;43.534;-5.674;2023-03-03T08:31:02;102455.78;;;7.88;100.00
72438;BME280;60444;43.534;-5.674;2023-03-03T08:33:28;102450.50;;;7.79;100.00
72438;BME280;60444;43.534;-5.674;2023-03-03T08:35:53;102438.91;;;7.72;100.00
72438;BME280;60444;43.534;-5.674;2023-03-03T08:38:20;102461.13;;;7.89;100.00
72438;BME280;60444;43.534;-5.674;2023-03-03T08:40:47;102470.03;;;7.99;100.00
72438;BME280;60444;43.534;-5.674;2023-03-03T08:43:13;102467.34;;;7.97;100.00
72438;BME280;60444;43.534;-5.674;2023-03-03T08:45:45;102465.53;;;7.99;100.00
72438;BME280;60444;43.534;-5.674;2023-03-03T08:48:11;102473.53;;;8.04;100.00
72438;BME280;60444;43.534;-5.674;2023-03-03T08:50:37;102454.94;;;7.83;100.00
72438;BME280;60444;43.534;-5.674;2023-03-03T08:53:04;102463.72;;;8.01;100.00
72438;BME280;60444;43.534;-5.674;2023-03-03T08:55:29;102482.63;;;7.95;100.00
72438;BME280;60444;43.534;-5.674;2023-03-03T08:57:55;102467.47;;;7.88;100.00
72438;BME280;60444;43.534;-5.674;2023-03-03T09:00:33;102462.91;;;7.93;100.00
72438;BME280;60444;43.534;-5.674;2023-03-03T09:02:59;102464.69;;;7.96;100.00
72438;BME280;60444;43.534;-5.674;2023-03-03T09:05:26;102476.22;;;8.05;100.00
72438;BME280;60444;43.534;-5.674;2023-03-03T09:07:52;102481.69;;;7.99;100.00
72438;BME280;60444;43.534;-5.674;2023-03-03T09:10:23;102470.00;;;8.00;100.00
72438;BME280;60444;43.534;-5.674;2023-03-03T09:12:52;102486.06;;;8.09;100.00
72438;BME280;60444;43.534;-5.674;2023-03-03T09:17:50;102478.91;;;8.07;100.00
72438;BME280;60444;43.534;-5.674;2023-03-03T09:20:23;102458.31;;;8.03;100.00
72438;BME280;60444;43.534;-5.674;2023-03-03T09:22:51;102460.03;;;8.05;100.00
72438;BME280;60444;43.534;-5.674;2023-03-03T09:25:33;102482.25;;;8.27;100.00
72438;BME280;60444;43.534;-5.674;2023-03-03T09:28:01;102468.84;;;8.24;100.00
72438;BME280;60444;43.534;-5.674;2023-03-03T09:30:39;102484.97;;;8.28;100.00
72438;BME280;60444;43.534;-5.674;2023-03-03T09:33:22;102481.28;;;8.35;100.00
72438;BME280;60444;43.534;-5.674;2023-03-03T09:38:41;102475.78;;;8.42;100.00
72438;BME280;60444;43.534;-5.674;2023-03-03T09:52:10;102482.41;;;8.82;100.00
72438;BME280;60444;43.534;-5.674;2023-03-03T10:14:55;102469.03;;;9.29;100.00
72438;BME280;60444;43.534;-5.674;2023-03-03T10:17:50;102478.63;;;9.45;100.00
72438;BME280;60444;43.534;-5.674;2023-03-03T10:20:22;102481.19;;;9.54;100.00
72438;BME280;60444;43.534;-5.674;2023-03-03T10:22:55;102459.63;;;9.50;100.00
72438;BME280;60444;43.534;-5.674;2023-03-03T10:25:39;102463.00;;;9.64;100.00
72438;BME280;60444;43.534;-5.674;2023-03-03T10:28:30;102452.00;;;9.74;100.00
72438;BME280;60444;43.534;-5.674;2023-03-03T10:39:41;102448.63;;;10.06;100.00
72438;BME280;60444;43.534;-5.674;2023-03-03T10:53:11;102455.53;;;10.23;100.00
72438;BME280;60444;43.534;-5.674;2023-03-03T11:12:26;102453.41;;;10.37;100.00
72438;BME280;60444;43.534;-5.674;2023-03-03T11:15:07;102451.47;;;10.42;100.00
72438;BME280;60444;43.534;-5.674;2023-03-03T11:36:56;102425.31;;;10.43;97.77
72438;BME280;60444;43.534;-5.674;2023-03-03T11:39:24;102417.25;;;10.40;97.77
72438;BME280;60444;43.534;-5.674;2023-03-03T11:44:47;102431.63;;;10.42;98.02
72438;BME280;60444;43.534;-5.674;2023-03-03T11:50:15;102432.41;;;10.47;100.00
72438;BME280;60444;43.534;-5.674;2023-03-03T11:55:54;102426.41;;;10.34;100.00
72438;BME280;60444;43.534;-5.674;2023-03-03T11:58:35;102424.63;;;10.33;99.34
72438;BME280;60444;43.534;-5.674;2023-03-03T12:01:22;102422.88;;;10.31;97.62
72438;BME280;60444;43.534;-5.674;2023-03-03T12:04:06;102415.56;;;10.36;100.00
72438;BME280;60444;43.534;-5.674;2023-03-03T12:10:10;102423.56;;;10.40;98.28
72438;BME280;60444;43.534;-5.674;2023-03-03T12:12:42;102400.41;;;10.29;96.20
72438;BME280;60444;43.534;-5.674;2023-03-03T12:15:30;102418.03;;;10.47;98.65
72438;BME280;60444;43.534;-5.674;2023-03-03T12:18:14;102416.09;;;10.52;97.71
72438;BME280;60444;43.534;-5.674;2023-03-03T12:20:55;102412.41;;;10.56;100.00
72438;BME280;60444;43.534;-5.674;2023-03-03T12:26:40;102404.97;;;10.64;100.00
72438;BME280;60444;43.534;-5.674;2023-03-03T12:29:29;102402.19;;;10.68;100.00
72438;BME280;60444;43.534;-5.674;2023-03-03T12:32:38;102393.22;;;10.66;100.00
72438;BME280;60444;43.534;-5.674;2023-03-03T12:37:52;102366.25;;;10.62;100.00
72438;BME280;60444;43.534;-5.674;2023-03-03T12:40:30;102371.66;;;10.63;100.00
72438;BME280;60444;43.534;-5.674;2023-03-03T12:48:22;102385.00;;;10.69;98.50
72438;BME280;60444;43.534;-5.674;2023-03-03T12:51:05;102386.84;;;10.69;96.45
72438;BME280;60444;43.534;-5.674;2023-03-03T12:56:39;102358.66;;;10.77;100.00
72438;BME280;60444;43.534;-5.674;2023-03-03T13:02:38;102340.84;;;10.67;97.69
72438;BME280;60444;43.534;-5.674;2023-03-03T13:07:46;102364.66;;;10.90;96.96
72438;BME280;60444;43.534;-5.674;2023-03-03T13:10:48;102339.44;;;10.88;96.80
72438;BME280;60444;43.534;-5.674;2023-03-03T13:16:38;102328.69;;;10.85;96.05
72438;BME280;60444;43.534;-5.674;2023-03-03T13:19:15;102337.41;;;10.96;97.24
72438;BME280;60444;43.534;-5.674;2023-03-03T13:24:32;102335.63;;;10.95;93.66
72438;BME280;60444;43.534;-5.674;2023-03-03T13:27:12;102322.22;;;10.90;93.77
72438;BME280;60444;43.534;-5.674;2023-03-03T13:32:19;102334.50;;;11.03;93.33
72438;BME280;60444;43.534;-5.674;2023-03-03T13:37:38;102328.78;;;11.14;93.91
72438;BME280;60444;43.534;-5.674;2023-03-03T13:40:16;102328.69;;;11.18;92.85
72438;BME280;60444;43.534;-5.674;2023-03-03T13:42:47;102324.19;;;11.17;93.64
72438;BME280;60444;43.534;-5.674;2023-03-03T13:51:17;102322.34;;;11.18;95.66
72438;BME280;60444;43.534;-5.674;2023-03-03T13:53:51;102315.97;;;11.20;100.00
72438;BME280;60444;43.534;-5.674;2023-03-03T14:09:59;102287.09;;;11.19;96.62
72438;BME280;60444;43.534;-5.674;2023-03-03T14:12:43;102310.94;;;11.39;95.34
72438;BME280;60444;43.534;-5.674;2023-03-03T14:15:33;102300.13;;;11.37;97.31
72438;BME280;60444;43.534;-5.674;2023-03-03T14:20:43;102315.38;;;11.41;92.95
72438;BME280;60444;43.534;-5.674;2023-03-03T14:23:19;102303.56;;;11.44;91.49
72438;BME280;60444;43.534;-5.674;2023-03-03T14:26:07;102309.84;;;11.46;90.19
72438;BME280;60444;43.534;-5.674;2023-03-03T14:28:42;102285.72;;;11.37;88.58
72438;BME280;60444;43.534;-5.674;2023-03-03T14:31:29;102304.16;;;11.53;88.06
72438;BME280;60444;43.534;-5.674;2023-03-03T14:36:47;102287.91;;;11.55;88.16
72438;BME280;60444;43.534;-5.674;2023-03-03T14:39:33;102296.66;;;11.63;87.70
72438;BME280;60444;43.534;-5.674;2023-03-03T14:42:00;102300.28;;;11.64;87.64
72438;BME280;60444;43.534;-5.674;2023-03-03T14:44:35;102303.78;;;11.69;88.15
72438;BME280;60444;43.534;-5.674;2023-03-03T14:49:37;102306.25;;;11.76;88.61
72438;BME280;60444;43.534;-5.674;2023-03-03T14:54:41;102296.38;;;11.75;87.75
72438;BME280;60444;43.534;-5.674;2023-03-03T14:57:20;102305.31;;;11.77;87.93
72438;BME280;60444;43.534;-5.674;2023-03-03T15:05:51;102304.13;;;11.87;98.24
72438;BME280;60444;43.534;-5.674;2023-03-03T15:08:26;102287.19;;;11.79;94.00
72438;BME280;60444;43.534;-5.674;2023-03-03T15:11:31;102296.81;;;11.89;93.13
72438;BME280;60444;43.534;-5.674;2023-03-03T15:14:10;102287.69;;;11.92;97.51
72438;BME280;60444;43.534;-5.674;2023-03-03T15:16:36;102285.13;;;11.87;89.57
72438;BME280;60444;43.534;-5.674;2023-03-03T15:22:00;102288.34;;;12.00;100.00
72438;BME280;60444;43.534;-5.674;2023-03-03T15:27:20;102268.56;;;11.96;88.43
72438;BME280;60444;43.534;-5.674;2023-03-03T15:32:25;102290.63;;;12.13;85.15
72438;BME280;60444;43.534;-5.674;2023-03-03T15:35:05;102293.31;;;12.15;83.22
72438;BME280;60444;43.534;-5.674;2023-03-03T15:37:51;102273.59;;;12.08;83.69
72438;BME280;60444;43.534;-5.674;2023-03-03T15:40:42;102284.09;;;12.19;82.89
72438;BME280;60444;43.534;-5.674;2023-03-03T15:43:19;102276.22;;;12.11;83.29
72438;BME280;60444;43.534;-5.674;2023-03-03T15:45:52;102288.69;;;12.17;83.23
72438;BME280;60444;43.534;-5.674;2023-03-03T15:54:03;102282.78;;;12.04;85.12
72438;BME280;60444;43.534;-5.674;2023-03-03T15:56:55;102283.06;;;11.95;84.93
72438;BME280;60444;43.534;-5.674;2023-03-03T16:02:21;102279.88;;;11.81;86.51
72438;BME280;60444;43.534;-5.674;2023-03-03T16:05:00;102272.03;;;11.72;86.03
72438;BME280;60444;43.534;-5.674;2023-03-03T16:07:45;102289.72;;;11.85;86.56
72438;BME280;60444;43.534;-5.674;2023-03-03T16:16:01;102269.25;;;11.75;98.54
72438;BME280;60444;43.534;-5.674;2023-03-03T16:23:49;102296.22;;;11.80;91.97
72438;BME280;60444;43.534;-5.674;2023-03-03T16:31:55;102286.25;;;11.80;94.64
72438;BME280;60444;43.534;-5.674;2023-03-03T16:34:43;102287.13;;;11.81;91.65
72438;BME280;60444;43.534;-5.674;2023-03-03T16:40:37;102290.63;;;11.84;100.00
72438;BME280;60444;43.534;-5.674;2023-03-03T16:45:45;102274.69;;;11.74;98.09
72438;BME280;60444;43.534;-5.674;2023-03-03T16:51:26;102265.88;;;11.67;89.74
72438;BME280;60444;43.534;-5.674;2023-03-03T17:00:03;102282.69;;;11.78;91.59
72438;BME280;60444;43.534;-5.674;2023-03-03T17:05:51;102292.44;;;11.85;92.49
72438;BME280;60444;43.534;-5.674;2023-03-03T17:19:32;102307.31;;;11.71;91.51
72438;BME280;60444;43.534;-5.674;2023-03-03T17:22:25;102310.19;;;11.66;91.00
72438;BME280;60444;43.534;-5.674;2023-03-03T17:25:04;102305.69;;;11.64;92.32
72438;BME280;60444;43.534;-5.674;2023-03-03T17:30:29;102302.56;;;11.46;98.05
72438;BME280;60444;43.534;-5.674;2023-03-03T17:33:30;102313.50;;;11.43;99.25
72438;BME280;60444;43.534;-5.674;2023-03-03T17:36:15;102319.03;;;11.40;96.69
72438;BME280;60444;43.534;-5.674;2023-03-03T17:39:14;102309.31;;;11.33;100.00
72438;BME280;60444;43.534;-5.674;2023-03-03T17:41:56;102317.44;;;11.33;99.76
72438;BME280;60444;43.534;-5.674;2023-03-03T17:44:57;102300.88;;;11.12;100.00
72438;BME280;60444;43.534;-5.674;2023-03-03T18:09:43;102349.63;;;10.77;100.00
72438;BME280;60444;43.534;-5.674;2023-03-03T18:20:34;102361.47;;;10.73;100.00